sensor_id;sensor_type;location;lat;lon;timestamp;temperature;humidity
1277;DHT22;631;51.024;13.826;2023-12-29T00:01:32;4.70;57.30
1277;DHT22;631;51.024;13.826;2023-12-29T00:03:58;4.70;57.40
1277;DHT22;631;51.024;13.826;2023-12-29T00:06:23;4.70;59.50
1277;DHT22;631;51.024;13.826;2023-12-29T00:08:49;4.70;63.90
1277;DHT22;631;51.024;13.826;2023-12-29T00:11:19;4.70;62.40
1277;DHT22;631;51.024;13.826;2023-12-29T00:13:45;4.70;58.20
1277;DHT22;631;51.024;13.826;2023-12-29T00:16:11;4.60;52.20
1277;DHT22;631;51.024;13.826;2023-12-29T00:18:37;4.60;37.00
1277;DHT22;631;51.024;13.826;2023-12-29T00:21:03;4.50;37.30
1277;DHT22;631;51.024;13.826;2023-12-29T00:23:29;4.50;46.90
1277;DHT22;631;51.024;13.826;2023-12-29T00:25:54;4.40;46.80
1277;DHT22;631;51.024;13.826;2023-12-29T00:28:20;4.30;44.70
1277;DHT22;631;51.024;13.826;2023-12-29T00:30:46;4.30;47.80
1277;DHT22;631;51.024;13.826;2023-12-29T00:33:11;4.30;50.60
1277;DHT22;631;51.024;13.826;2023-12-29T00:35:37;4.30;56.80
1277;DHT22;631;51.024;13.826;2023-12-29T00:38:04;4.20;57.70
1277;DHT22;631;51.024;13.826;2023-12-29T00:40:31;4.20;63.90
1277;DHT22;631;51.024;13.826;2023-12-29T00:42:56;4.20;66.70
1277;DHT22;631;51.024;13.826;2023-12-29T00:45:22;4.10;56.90
1277;DHT22;631;51.024;13.826;2023-12-29T00:47:47;4.00;54.40
1277;DHT22;631;51.024;13.826;2023-12-29T00:50:14;3.90;71.00
1277;DHT22;631;51.024;13.826;2023-12-29T00:52:39;3.90;72.70
1277;DHT22;631;51.024;13.826;2023-12-29T00:55:05;3.80;75.30
1277;DHT22;631;51.024;13.826;2023-12-29T00:57:31;3.80;88.70
1277;DHT22;631;51.024;13.826;2023-12-29T00:59:57;3.80;95.30
1277;DHT22;631;51.024;13.826;2023-12-29T01:02:22;3.80;95.90
1277;DHT22;631;51.024;13.826;2023-12-29T01:04:48;3.80;94.90
1277;DHT22;631;51.024;13.826;2023-12-29T01:07:13;3.80;96.80
1277;DHT22;631;51.024;13.826;2023-12-29T01:09:39;3.70;95.90
1277;DHT22;631;51.024;13.826;2023-12-29T01:12:08;3.70;99.90
1277;DHT22;631;51.024;13.826;2023-12-29T01:14:34;3.70;99.90
1277;DHT22;631;51.024;13.826;2023-12-29T01:16:59;3.70;99.90
1277;DHT22;631;51.024;13.826;2023-12-29T01:19:25;3.70;99.90
1277;DHT22;631;51.024;13.826;2023-12-29T01:21:50;3.60;99.90
1277;DHT22;631;51.024;13.826;2023-12-29T01:24:16;3.70;99.90
1277;DHT22;631;51.024;13.826;2023-12-29T01:26:42;3.70;99.90
1277;DHT22;631;51.024;13.826;2023-12-29T01:29:07;3.80;99.90
1277;DHT22;631;51.024;13.826;2023-12-29T01:31:33;3.70;99.90
1277;DHT22;631;51.024;13.826;2023-12-29T01:33:59;3.70;99.90
1277;DHT22;631;51.024;13.826;2023-12-29T01:36:24;3.80;99.90
1277;DHT22;631;51.024;13.826;2023-12-29T01:38:50;3.90;99.90
1277;DHT22;631;51.024;13.826;2023-12-29T01:41:17;3.90;99.90
1277;DHT22;631;51.024;13.826;2023-12-29T01:46:23;3.90;99.90
1277;DHT22;631;51.024;13.826;2023-12-29T01:48:49;3.90;99.90
1277;DHT22;631;51.024;13.826;2023-12-29T01:51:17;3.90;99.90
1277;DHT22;631;51.024;13.826;2023-12-29T01:53:43;3.90;99.90
1277;DHT22;631;51.024;13.826;2023-12-29T01:56:09;3.90;99.90
1277;DHT22;631;51.024;13.826;2023-12-29T01:58:35;3.90;99.90
1277;DHT22;631;51.024;13.826;2023-12-29T02:01:01;3.90;99.90
1277;DHT22;631;51.024;13.826;2023-12-29T02:03:27;3.90;99.90
1277;DHT22;631;51.024;13.826;2023-12-29T02:05:54;4.00;99.90
1277;DHT22;631;51.024;13.826;2023-12-29T02:08:24;4.00;99.90
1277;DHT22;631;51.024;13.826;2023-12-29T02:10:49;4.00;99.90
1277;DHT22;631;51.024;13.826;2023-12-29T02:13:15;4.00;99.90
1277;DHT22;631;51.024;13.826;2023-12-29T02:15:41;4.00;99.90
1277;DHT22;631;51.024;13.826;2023-12-29T02:18:11;4.00;99.90
1277;DHT22;631;51.024;13.826;2023-12-29T02:20:41;4.00;99.90
1277;DHT22;631;51.024;13.826;2023-12-29T02:23:07;4.00;99.90
1277;DHT22;631;51.024;13.826;2023-12-29T02:25:33;4.00;99.90
1277;DHT22;631;51.024;13.826;2023-12-29T02:28:31;3.90;99.90
1277;DHT22;631;51.024;13.826;2023-12-29T02:31:04;3.90;99.90
1277;DHT22;631;51.024;13.826;2023-12-29T02:33:33;3.90;99.90
1277;DHT22;631;51.024;13.826;2023-12-29T02:36:03;3.90;99.90
1277;DHT22;631;51.024;13.826;2023-12-29T02:38:30;3.80;99.90
1277;DHT22;631;51.024;13.826;2023-12-29T02:40:56;3.80;99.90
1277;DHT22;631;51.024;13.826;2023-12-29T02:43:22;3.80;99.90
1277;DHT22;631;51.024;13.826;2023-12-29T02:45:48;3.80;99.90
1277;DHT22;631;51.024;13.826;2023-12-29T02:48:13;3.70;99.90
1277;DHT22;631;51.024;13.826;2023-12-29T02:50:39;3.80;99.90
1277;DHT22;631;51.024;13.826;2023-12-29T02:53:05;3.70;99.90
1277;DHT22;631;51.024;13.826;2023-12-29T02:55:30;3.70;99.90
1277;DHT22;631;51.024;13.826;2023-12-29T02:57:56;3.70;99.90
1277;DHT22;631;51.024;13.826;2023-12-29T03:00:22;3.80;99.90
1277;DHT22;631;51.024;13.826;2023-12-29T03:02:47;3.80;99.90
1277;DHT22;631;51.024;13.826;2023-12-29T03:05:14;3.80;99.90
1277;DHT22;631;51.024;13.826;2023-12-29T03:07:39;3.90;99.90
1277;DHT22;631;51.024;13.826;2023-12-29T03:10:06;3.90;99.90
1277;DHT22;631;51.024;13.826;2023-12-29T03:12:32;3.90;99.90
1277;DHT22;631;51.024;13.826;2023-12-29T03:14:58;3.90;99.90
1277;DHT22;631;51.024;13.826;2023-12-29T03:17:23;3.90;99.90
1277;DHT22;631;51.024;13.826;2023-12-29T03:19:49;3.90;99.90
1277;DHT22;631;51.024;13.826;2023-12-29T03:22:15;3.90;99.90
1277;DHT22;631;51.024;13.826;2023-12-29T03:24:41;3.90;99.90
1277;DHT22;631;51.024;13.826;2023-12-29T03:27:08;3.90;99.90
1277;DHT22;631;51.024;13.826;2023-12-29T03:29:34;3.90;99.90
1277;DHT22;631;51.024;13.826;2023-12-29T03:31:59;3.90;99.90
1277;DHT22;631;51.024;13.826;2023-12-29T03:34:25;3.90;99.90
1277;DHT22;631;51.024;13.826;2023-12-29T03:36:51;4.00;99.90
1277;DHT22;631;51.024;13.826;2023-12-29T03:39:16;3.90;99.90
1277;DHT22;631;51.024;13.826;2023-12-29T03:41:42;4.00;99.90
1277;DHT22;631;51.024;13.826;2023-12-29T03:44:07;4.00;99.90
1277;DHT22;631;51.024;13.826;2023-12-29T03:46:33;4.00;99.90
1277;DHT22;631;51.024;13.826;2023-12-29T03:48:59;4.00;99.90
1277;DHT22;631;51.024;13.826;2023-12-29T03:51:25;4.00;99.90
1277;DHT22;631;51.024;13.826;2023-12-29T03:53:51;4.10;99.90
1277;DHT22;631;51.024;13.826;2023-12-29T03:56:18;4.10;99.90
1277;DHT22;631;51.024;13.826;2023-12-29T03:58:44;4.10;99.90
1277;DHT22;631;51.024;13.826;2023-12-29T04:01:11;4.10;99.90
1277;DHT22;631;51.024;13.826;2023-12-29T04:03:37;4.20;99.90
1277;DHT22;631;51.024;13.826;2023-12-29T04:06:04;4.20;99.90
1277;DHT22;631;51.024;13.826;2023-12-29T04:08:29;4.20;99.90
1277;DHT22;631;51.024;13.826;2023-12-29T04:10:55;4.30;99.90
1277;DHT22;631;51.024;13.826;2023-12-29T04:13:20;4.40;99.90
1277;DHT22;631;51.024;13.826;2023-12-29T04:15:46;4.50;99.90
1277;DHT22;631;51.024;13.826;2023-12-29T04:18:11;4.50;99.90
1277;DHT22;631;51.024;13.826;2023-12-29T04:20:37;4.60;99.90
1277;DHT22;631;51.024;13.826;2023-12-29T04:23:05;4.60;99.90
1277;DHT22;631;51.024;13.826;2023-12-29T04:25:31;4.70;99.90
1277;DHT22;631;51.024;13.826;2023-12-29T04:27:57;4.80;99.90
1277;DHT22;631;51.024;13.826;2023-12-29T04:30:22;4.80;99.90
1277;DHT22;631;51.024;13.826;2023-12-29T04:32:48;4.90;99.90
1277;DHT22;631;51.024;13.826;2023-12-29T04:35:13;5.00;99.90
1277;DHT22;631;51.024;13.826;2023-12-29T04:37:44;5.00;99.90
1277;DHT22;631;51.024;13.826;2023-12-29T04:40:10;5.30;99.90
1277;DHT22;631;51.024;13.826;2023-12-29T04:42:36;5.50;99.90
1277;DHT22;631;51.024;13.826;2023-12-29T04:45:01;5.70;92.40
1277;DHT22;631;51.024;13.826;2023-12-29T04:47:27;5.70;64.90
1277;DHT22;631;51.024;13.826;2023-12-29T04:49:52;5.90;99.90
1277;DHT22;631;51.024;13.826;2023-12-29T04:52:18;6.00;10.30
1277;DHT22;631;51.024;13.826;2023-12-29T04:54:44;6.10;99.90
1277;DHT22;631;51.024;13.826;2023-12-29T04:57:09;6.40;1.00
1277;DHT22;631;51.024;13.826;2023-12-29T04:59:35;6.90;1.00
1277;DHT22;631;51.024;13.826;2023-12-29T05:02:00;7.10;1.00
1277;DHT22;631;51.024;13.826;2023-12-29T05:04:26;7.30;1.00
1277;DHT22;631;51.024;13.826;2023-12-29T05:06:51;7.40;1.00
1277;DHT22;631;51.024;13.826;2023-12-29T05:09:17;7.40;1.00
1277;DHT22;631;51.024;13.826;2023-12-29T05:11:43;7.30;99.90
1277;DHT22;631;51.024;13.826;2023-12-29T05:14:08;7.30;99.90
1277;DHT22;631;51.024;13.826;2023-12-29T05:16:34;7.20;99.90
1277;DHT22;631;51.024;13.826;2023-12-29T05:19:00;7.20;1.00
1277;DHT22;631;51.024;13.826;2023-12-29T05:21:26;7.10;1.00
1277;DHT22;631;51.024;13.826;2023-12-29T05:23:52;7.30;99.90
1277;DHT22;631;51.024;13.826;2023-12-29T05:26:18;7.40;99.90
1277;DHT22;631;51.024;13.826;2023-12-29T05:28:43;7.40;99.90
1277;DHT22;631;51.024;13.826;2023-12-29T05:31:09;7.50;99.90
1277;DHT22;631;51.024;13.826;2023-12-29T05:33:35;7.40;99.90
1277;DHT22;631;51.024;13.826;2023-12-29T05:36:06;7.40;99.90
1277;DHT22;631;51.024;13.826;2023-12-29T05:38:33;7.30;99.90
1277;DHT22;631;51.024;13.826;2023-12-29T05:41:00;7.40;99.90
1277;DHT22;631;51.024;13.826;2023-12-29T05:43:28;7.50;99.90
1277;DHT22;631;51.024;13.826;2023-12-29T05:45:53;7.50;99.90
1277;DHT22;631;51.024;13.826;2023-12-29T05:48:19;7.80;99.90
1277;DHT22;631;51.024;13.826;2023-12-29T05:50:44;8.00;99.90
1277;DHT22;631;51.024;13.826;2023-12-29T05:53:10;8.10;99.90
1277;DHT22;631;51.024;13.826;2023-12-29T05:55:36;8.10;99.90
1277;DHT22;631;51.024;13.826;2023-12-29T05:58:01;8.20;99.90
1277;DHT22;631;51.024;13.826;2023-12-29T06:00:27;8.30;99.90
1277;DHT22;631;51.024;13.826;2023-12-29T06:02:53;8.50;99.90
1277;DHT22;631;51.024;13.826;2023-12-29T06:05:18;8.70;99.90
1277;DHT22;631;51.024;13.826;2023-12-29T06:07:44;8.80;99.90
1277;DHT22;631;51.024;13.826;2023-12-29T06:10:11;9.00;99.90
1277;DHT22;631;51.024;13.826;2023-12-29T06:12:37;9.00;99.90
1277;DHT22;631;51.024;13.826;2023-12-29T06:15:03;9.00;99.90
1277;DHT22;631;51.024;13.826;2023-12-29T06:17:28;9.00;99.90
1277;DHT22;631;51.024;13.826;2023-12-29T06:19:54;9.10;99.90
1277;DHT22;631;51.024;13.826;2023-12-29T06:22:19;9.20;99.90
1277;DHT22;631;51.024;13.826;2023-12-29T06:24:45;9.30;99.90
1277;DHT22;631;51.024;13.826;2023-12-29T06:27:12;9.30;99.90
1277;DHT22;631;51.024;13.826;2023-12-29T06:29:37;9.40;99.90
1277;DHT22;631;51.024;13.826;2023-12-29T06:32:04;9.50;99.90
1277;DHT22;631;51.024;13.826;2023-12-29T06:34:30;9.50;99.90
1277;DHT22;631;51.024;13.826;2023-12-29T06:36:55;9.60;99.90
1277;DHT22;631;51.024;13.826;2023-12-29T06:39:21;9.60;99.90
1277;DHT22;631;51.024;13.826;2023-12-29T06:41:47;9.60;99.90
1277;DHT22;631;51.024;13.826;2023-12-29T06:44:12;9.70;99.90
1277;DHT22;631;51.024;13.826;2023-12-29T06:46:38;9.70;99.90
1277;DHT22;631;51.024;13.826;2023-12-29T06:49:04;9.80;99.90
1277;DHT22;631;51.024;13.826;2023-12-29T06:51:30;9.80;99.90
1277;DHT22;631;51.024;13.826;2023-12-29T06:53:55;9.80;99.90
1277;DHT22;631;51.024;13.826;2023-12-29T06:56:21;9.80;99.90
1277;DHT22;631;51.024;13.826;2023-12-29T06:58:47;9.80;99.90
1277;DHT22;631;51.024;13.826;2023-12-29T07:01:13;9.80;99.80
1277;DHT22;631;51.024;13.826;2023-12-29T07:03:39;9.80;99.60
1277;DHT22;631;51.024;13.826;2023-12-29T07:06:05;9.80;99.50
1277;DHT22;631;51.024;13.826;2023-12-29T07:08:30;9.80;99.40
1277;DHT22;631;51.024;13.826;2023-12-29T07:10:56;9.80;99.40
1277;DHT22;631;51.024;13.826;2023-12-29T07:13:22;9.80;99.80
1277;DHT22;631;51.024;13.826;2023-12-29T07:15:47;9.70;99.70
1277;DHT22;631;51.024;13.826;2023-12-29T07:18:14;9.60;99.90
1277;DHT22;631;51.024;13.826;2023-12-29T07:20:40;9.50;99.90
1277;DHT22;631;51.024;13.826;2023-12-29T07:23:06;9.40;99.90
1277;DHT22;631;51.024;13.826;2023-12-29T07:25:31;9.40;99.90
1277;DHT22;631;51.024;13.826;2023-12-29T07:27:57;9.50;99.90
1277;DHT22;631;51.024;13.826;2023-12-29T07:30:23;9.50;99.90
1277;DHT22;631;51.024;13.826;2023-12-29T07:32:48;9.50;99.90
1277;DHT22;631;51.024;13.826;2023-12-29T07:35:14;9.50;99.90
1277;DHT22;631;51.024;13.826;2023-12-29T07:37:45;9.40;99.90
1277;DHT22;631;51.024;13.826;2023-12-29T07:40:11;9.30;99.90
1277;DHT22;631;51.024;13.826;2023-12-29T07:42:39;9.30;99.90
1277;DHT22;631;51.024;13.826;2023-12-29T07:45:05;9.20;99.90
1277;DHT22;631;51.024;13.826;2023-12-29T07:47:31;9.20;99.90
1277;DHT22;631;51.024;13.826;2023-12-29T07:49:57;9.10;99.90
1277;DHT22;631;51.024;13.826;2023-12-29T07:52:22;9.20;99.90
1277;DHT22;631;51.024;13.826;2023-12-29T07:54:48;9.30;99.90
1277;DHT22;631;51.024;13.826;2023-12-29T07:57:14;9.40;99.90
1277;DHT22;631;51.024;13.826;2023-12-29T07:59:40;9.40;99.90
1277;DHT22;631;51.024;13.826;2023-12-29T08:02:06;9.50;99.90
1277;DHT22;631;51.024;13.826;2023-12-29T08:04:32;9.50;99.90
1277;DHT22;631;51.024;13.826;2023-12-29T08:06:58;9.50;99.90
1277;DHT22;631;51.024;13.826;2023-12-29T08:09:25;9.50;99.90
1277;DHT22;631;51.024;13.826;2023-12-29T08:11:50;9.50;99.90
1277;DHT22;631;51.024;13.826;2023-12-29T08:14:16;9.60;99.90
1277;DHT22;631;51.024;13.826;2023-12-29T08:16:41;9.80;99.90
1277;DHT22;631;51.024;13.826;2023-12-29T08:19:07;9.90;99.90
1277;DHT22;631;51.024;13.826;2023-12-29T08:21:33;10.00;99.90
1277;DHT22;631;51.024;13.826;2023-12-29T08:23:59;10.10;99.90
1277;DHT22;631;51.024;13.826;2023-12-29T08:26:25;10.10;99.90
1277;DHT22;631;51.024;13.826;2023-12-29T08:28:51;10.20;99.90
1277;DHT22;631;51.024;13.826;2023-12-29T08:31:18;10.40;99.90
1277;DHT22;631;51.024;13.826;2023-12-29T08:33:44;10.50;99.90
1277;DHT22;631;51.024;13.826;2023-12-29T08:36:11;10.70;99.80
1277;DHT22;631;51.024;13.826;2023-12-29T08:38:37;10.80;98.80
1277;DHT22;631;51.024;13.826;2023-12-29T08:41:03;10.90;97.90
1277;DHT22;631;51.024;13.826;2023-12-29T08:43:30;10.90;97.60
1277;DHT22;631;51.024;13.826;2023-12-29T08:45:56;10.90;97.80
1277;DHT22;631;51.024;13.826;2023-12-29T08:48:22;10.90;97.90
1277;DHT22;631;51.024;13.826;2023-12-29T08:50:48;11.00;98.40
1277;DHT22;631;51.024;13.826;2023-12-29T08:53:14;11.00;98.10
1277;DHT22;631;51.024;13.826;2023-12-29T08:55:41;11.00;97.80
1277;DHT22;631;51.024;13.826;2023-12-29T08:58:07;11.00;97.50
1277;DHT22;631;51.024;13.826;2023-12-29T09:00:32;11.10;97.70
1277;DHT22;631;51.024;13.826;2023-12-29T09:02:58;11.10;98.00
1277;DHT22;631;51.024;13.826;2023-12-29T09:05:24;10.90;97.20
1277;DHT22;631;51.024;13.826;2023-12-29T09:07:49;10.90;97.40
1277;DHT22;631;51.024;13.826;2023-12-29T09:10:15;10.90;97.80
1277;DHT22;631;51.024;13.826;2023-12-29T09:12:41;11.00;98.20
1277;DHT22;631;51.024;13.826;2023-12-29T09:15:07;11.00;97.50
1277;DHT22;631;51.024;13.826;2023-12-29T09:17:33;11.10;97.50
1277;DHT22;631;51.024;13.826;2023-12-29T09:19:59;11.10;97.60
1277;DHT22;631;51.024;13.826;2023-12-29T09:22:25;11.20;97.10
1277;DHT22;631;51.024;13.826;2023-12-29T09:24:51;11.30;97.20
1277;DHT22;631;51.024;13.826;2023-12-29T09:27:16;11.30;97.20
1277;DHT22;631;51.024;13.826;2023-12-29T09:29:42;11.40;97.30
1277;DHT22;631;51.024;13.826;2023-12-29T09:32:08;11.40;97.00
1277;DHT22;631;51.024;13.826;2023-12-29T09:34:34;11.40;97.30
1277;DHT22;631;51.024;13.826;2023-12-29T09:37:00;11.40;96.90
1277;DHT22;631;51.024;13.826;2023-12-29T09:39:25;11.50;97.10
1277;DHT22;631;51.024;13.826;2023-12-29T09:41:57;11.40;96.70
1277;DHT22;631;51.024;13.826;2023-12-29T09:44:24;11.40;96.50
1277;DHT22;631;51.024;13.826;2023-12-29T09:46:53;11.40;96.50
1277;DHT22;631;51.024;13.826;2023-12-29T09:49:19;11.40;96.70
1277;DHT22;631;51.024;13.826;2023-12-29T09:51:45;11.40;97.10
1277;DHT22;631;51.024;13.826;2023-12-29T09:54:12;11.40;96.50
1277;DHT22;631;51.024;13.826;2023-12-29T09:56:38;11.50;97.20
1277;DHT22;631;51.024;13.826;2023-12-29T09:59:05;11.70;96.40
1277;DHT22;631;51.024;13.826;2023-12-29T10:01:32;12.00;95.40
1277;DHT22;631;51.024;13.826;2023-12-29T10:03:58;12.10;95.40
1277;DHT22;631;51.024;13.826;2023-12-29T10:06:25;12.40;94.80
1277;DHT22;631;51.024;13.826;2023-12-29T10:08:51;12.60;94.40
1277;DHT22;631;51.024;13.826;2023-12-29T10:11:19;12.70;93.70
1277;DHT22;631;51.024;13.826;2023-12-29T10:13:49;12.70;94.00
1277;DHT22;631;51.024;13.826;2023-12-29T10:16:41;12.60;93.50
1277;DHT22;631;51.024;13.826;2023-12-29T10:19:15;12.50;93.70
1277;DHT22;631;51.024;13.826;2023-12-29T10:21:57;12.10;93.80
1277;DHT22;631;51.024;13.826;2023-12-29T10:24:28;12.00;94.20
1277;DHT22;631;51.024;13.826;2023-12-29T10:26:55;12.00;94.60
1277;DHT22;631;51.024;13.826;2023-12-29T10:29:21;12.00;94.50
1277;DHT22;631;51.024;13.826;2023-12-29T10:31:47;11.80;94.70
1277;DHT22;631;51.024;13.826;2023-12-29T10:36:51;11.70;95.10
1277;DHT22;631;51.024;13.826;2023-12-29T10:39:16;11.70;95.20
1277;DHT22;631;51.024;13.826;2023-12-29T10:41:42;11.80;95.70
1277;DHT22;631;51.024;13.826;2023-12-29T10:44:08;11.80;95.20
1277;DHT22;631;51.024;13.826;2023-12-29T10:46:34;11.70;95.10
1277;DHT22;631;51.024;13.826;2023-12-29T10:49:10;11.80;95.00
1277;DHT22;631;51.024;13.826;2023-12-29T10:51:36;11.80;95.00
1277;DHT22;631;51.024;13.826;2023-12-29T10:54:05;11.80;95.10
1277;DHT22;631;51.024;13.826;2023-12-29T10:56:32;11.70;95.00
1277;DHT22;631;51.024;13.826;2023-12-29T11:01:25;12.00;94.80
1277;DHT22;631;51.024;13.826;2023-12-29T11:03:58;11.90;94.80
1277;DHT22;631;51.024;13.826;2023-12-29T11:06:26;12.10;94.70
1277;DHT22;631;51.024;13.826;2023-12-29T11:08:51;12.40;94.00
1277;DHT22;631;51.024;13.826;2023-12-29T11:11:18;12.70;93.90
1277;DHT22;631;51.024;13.826;2023-12-29T11:13:46;12.80;92.80
1277;DHT22;631;51.024;13.826;2023-12-29T11:16:12;13.00;92.40
1277;DHT22;631;51.024;13.826;2023-12-29T11:18:39;12.90;91.90
1277;DHT22;631;51.024;13.826;2023-12-29T11:21:08;13.10;92.10
1277;DHT22;631;51.024;13.826;2023-12-29T11:23:33;13.00;91.50
1277;DHT22;631;51.024;13.826;2023-12-29T11:25:59;13.30;91.50
1277;DHT22;631;51.024;13.826;2023-12-29T11:28:25;13.50;90.90
1277;DHT22;631;51.024;13.826;2023-12-29T11:30:52;13.70;90.20
1277;DHT22;631;51.024;13.826;2023-12-29T11:33:22;13.80;90.00
1277;DHT22;631;51.024;13.826;2023-12-29T11:35:59;14.00;89.50
1277;DHT22;631;51.024;13.826;2023-12-29T11:44:08;14.80;82.30
1277;DHT22;631;51.024;13.826;2023-12-29T11:46:42;15.00;83.10
1277;DHT22;631;51.024;13.826;2023-12-29T11:49:09;15.40;81.00
1277;DHT22;631;51.024;13.826;2023-12-29T11:51:39;15.80;77.50
1277;DHT22;631;51.024;13.826;2023-12-29T11:54:05;15.40;74.10
1277;DHT22;631;51.024;13.826;2023-12-29T11:56:33;15.60;75.40
1277;DHT22;631;51.024;13.826;2023-12-29T12:01:51;15.20;74.70
1277;DHT22;631;51.024;13.826;2023-12-29T12:04:40;14.60;76.10
1277;DHT22;631;51.024;13.826;2023-12-29T12:07:15;14.30;78.90
1277;DHT22;631;51.024;13.826;2023-12-29T12:09:41;14.30;78.40
1277;DHT22;631;51.024;13.826;2023-12-29T12:12:07;14.10;78.10
1277;DHT22;631;51.024;13.826;2023-12-29T12:14:52;13.70;79.90
1277;DHT22;631;51.024;13.826;2023-12-29T12:20:18;13.60;81.40
1277;DHT22;631;51.024;13.826;2023-12-29T12:22:44;13.50;81.70
1277;DHT22;631;51.024;13.826;2023-12-29T12:25:11;13.20;83.70
1277;DHT22;631;51.024;13.826;2023-12-29T12:27:38;12.90;84.90
1277;DHT22;631;51.024;13.826;2023-12-29T12:30:05;12.80;85.70
1277;DHT22;631;51.024;13.826;2023-12-29T12:32:31;12.90;86.10
1277;DHT22;631;51.024;13.826;2023-12-29T12:34:57;12.90;86.40
1277;DHT22;631;51.024;13.826;2023-12-29T12:37:26;12.90;86.80
1277;DHT22;631;51.024;13.826;2023-12-29T12:39:52;13.00;87.90
1277;DHT22;631;51.024;13.826;2023-12-29T12:42:19;12.90;88.00
1277;DHT22;631;51.024;13.826;2023-12-29T12:44:54;12.90;88.30
1277;DHT22;631;51.024;13.826;2023-12-29T12:47:27;13.10;88.20
1277;DHT22;631;51.024;13.826;2023-12-29T12:49:53;13.00;87.70
1277;DHT22;631;51.024;13.826;2023-12-29T12:52:18;12.70;88.30
1277;DHT22;631;51.024;13.826;2023-12-29T12:54:45;12.80;89.30
1277;DHT22;631;51.024;13.826;2023-12-29T12:57:11;12.90;89.40
1277;DHT22;631;51.024;13.826;2023-12-29T12:59:36;12.90;89.20
1277;DHT22;631;51.024;13.826;2023-12-29T13:02:02;12.80;89.40
1277;DHT22;631;51.024;13.826;2023-12-29T13:04:31;13.00;89.50
1277;DHT22;631;51.024;13.826;2023-12-29T13:06:57;13.10;88.90
1277;DHT22;631;51.024;13.826;2023-12-29T13:09:22;13.10;88.60
1277;DHT22;631;51.024;13.826;2023-12-29T13:11:48;12.90;88.40
1277;DHT22;631;51.024;13.826;2023-12-29T13:14:23;12.80;89.10
1277;DHT22;631;51.024;13.826;2023-12-29T13:16:51;12.70;89.80
1277;DHT22;631;51.024;13.826;2023-12-29T13:19:18;12.60;90.30
1277;DHT22;631;51.024;13.826;2023-12-29T13:21:48;12.40;90.40
1277;DHT22;631;51.024;13.826;2023-12-29T13:24:14;12.30;90.50
1277;DHT22;631;51.024;13.826;2023-12-29T13:26:43;12.30;91.00
1277;DHT22;631;51.024;13.826;2023-12-29T13:29:09;12.30;91.10
1277;DHT22;631;51.024;13.826;2023-12-29T13:31:35;12.20;91.50
1277;DHT22;631;51.024;13.826;2023-12-29T13:34:06;12.30;91.30
1277;DHT22;631;51.024;13.826;2023-12-29T13:36:49;12.30;91.40
1277;DHT22;631;51.024;13.826;2023-12-29T13:42:17;12.30;91.60
1277;DHT22;631;51.024;13.826;2023-12-29T13:44:45;12.20;91.50
1277;DHT22;631;51.024;13.826;2023-12-29T13:47:11;12.20;91.70
1277;DHT22;631;51.024;13.826;2023-12-29T13:49:37;12.10;91.90
1277;DHT22;631;51.024;13.826;2023-12-29T13:52:03;12.20;91.70
1277;DHT22;631;51.024;13.826;2023-12-29T13:54:29;12.20;91.70
1277;DHT22;631;51.024;13.826;2023-12-29T13:56:55;12.20;91.70
1277;DHT22;631;51.024;13.826;2023-12-29T13:59:31;12.20;91.40
1277;DHT22;631;51.024;13.826;2023-12-29T14:02:27;12.20;91.60
1277;DHT22;631;51.024;13.826;2023-12-29T14:05:15;12.10;91.60
1277;DHT22;631;51.024;13.826;2023-12-29T14:07:59;12.10;91.60
1277;DHT22;631;51.024;13.826;2023-12-29T14:10:35;12.20;91.80
1277;DHT22;631;51.024;13.826;2023-12-29T14:13:05;12.10;91.40
1277;DHT22;631;51.024;13.826;2023-12-29T14:15:39;12.20;91.60
1277;DHT22;631;51.024;13.826;2023-12-29T14:24:07;12.10;91.20
1277;DHT22;631;51.024;13.826;2023-12-29T14:26:34;12.20;91.30
1277;DHT22;631;51.024;13.826;2023-12-29T14:29:07;12.20;91.20
1277;DHT22;631;51.024;13.826;2023-12-29T14:31:42;12.10;91.40
1277;DHT22;631;51.024;13.826;2023-12-29T14:34:08;12.20;91.30
1277;DHT22;631;51.024;13.826;2023-12-29T14:36:35;12.20;91.40
1277;DHT22;631;51.024;13.826;2023-12-29T14:39:02;12.20;91.20
1277;DHT22;631;51.024;13.826;2023-12-29T14:41:29;12.20;91.10
1277;DHT22;631;51.024;13.826;2023-12-29T14:43:55;12.30;91.10
1277;DHT22;631;51.024;13.826;2023-12-29T14:46:21;12.30;91.00
1277;DHT22;631;51.024;13.826;2023-12-29T14:48:47;12.30;90.90
1277;DHT22;631;51.024;13.826;2023-12-29T14:51:13;12.30;90.80
1277;DHT22;631;51.024;13.826;2023-12-29T14:53:39;12.30;90.80
1277;DHT22;631;51.024;13.826;2023-12-29T14:56:05;12.30;90.90
1277;DHT22;631;51.024;13.826;2023-12-29T14:58:31;12.20;90.90
1277;DHT22;631;51.024;13.826;2023-12-29T15:00:57;12.30;91.00
1277;DHT22;631;51.024;13.826;2023-12-29T15:03:23;12.20;90.70
1277;DHT22;631;51.024;13.826;2023-12-29T15:05:49;12.20;90.90
1277;DHT22;631;51.024;13.826;2023-12-29T15:08:15;12.20;91.10
1277;DHT22;631;51.024;13.826;2023-12-29T15:10:41;12.10;91.10
1277;DHT22;631;51.024;13.826;2023-12-29T15:13:07;12.20;90.90
1277;DHT22;631;51.024;13.826;2023-12-29T15:15:33;12.20;91.10
1277;DHT22;631;51.024;13.826;2023-12-29T15:17:59;12.20;91.00
1277;DHT22;631;51.024;13.826;2023-12-29T15:20:25;12.20;91.10
1277;DHT22;631;51.024;13.826;2023-12-29T15:22:50;12.20;91.10
1277;DHT22;631;51.024;13.826;2023-12-29T15:25:17;12.20;91.20
1277;DHT22;631;51.024;13.826;2023-12-29T15:27:44;12.20;91.20
1277;DHT22;631;51.024;13.826;2023-12-29T15:30:10;12.30;91.00
1277;DHT22;631;51.024;13.826;2023-12-29T15:32:37;12.30;91.60
1277;DHT22;631;51.024;13.826;2023-12-29T15:35:02;12.20;91.30
1277;DHT22;631;51.024;13.826;2023-12-29T15:37:29;12.30;91.60
1277;DHT22;631;51.024;13.826;2023-12-29T15:39:54;12.40;91.10
1277;DHT22;631;51.024;13.826;2023-12-29T15:42:20;12.30;91.10
1277;DHT22;631;51.024;13.826;2023-12-29T15:44:45;12.30;91.40
1277;DHT22;631;51.024;13.826;2023-12-29T15:47:11;12.30;91.40
1277;DHT22;631;51.024;13.826;2023-12-29T15:49:37;12.30;91.40
1277;DHT22;631;51.024;13.826;2023-12-29T15:52:03;12.30;91.30
1277;DHT22;631;51.024;13.826;2023-12-29T15:54:29;12.30;91.30
1277;DHT22;631;51.024;13.826;2023-12-29T15:56:54;12.30;91.10
1277;DHT22;631;51.024;13.826;2023-12-29T15:59:20;12.40;91.20
1277;DHT22;631;51.024;13.826;2023-12-29T16:01:45;12.40;91.30
1277;DHT22;631;51.024;13.826;2023-12-29T16:04:11;12.40;91.50
1277;DHT22;631;51.024;13.826;2023-12-29T16:06:37;12.30;91.30
1277;DHT22;631;51.024;13.826;2023-12-29T16:09:03;12.30;91.40
1277;DHT22;631;51.024;13.826;2023-12-29T16:11:30;12.40;91.50
1277;DHT22;631;51.024;13.826;2023-12-29T16:13:57;12.40;91.40
1277;DHT22;631;51.024;13.826;2023-12-29T16:16:24;12.30;91.60
1277;DHT22;631;51.024;13.826;2023-12-29T16:18:56;12.40;91.80
1277;DHT22;631;51.024;13.826;2023-12-29T16:21:22;12.40;91.60
1277;DHT22;631;51.024;13.826;2023-12-29T16:23:48;12.30;91.90
1277;DHT22;631;51.024;13.826;2023-12-29T16:26:14;12.20;92.10
1277;DHT22;631;51.024;13.826;2023-12-29T16:28:39;12.30;92.00
1277;DHT22;631;51.024;13.826;2023-12-29T16:31:07;12.20;92.10
1277;DHT22;631;51.024;13.826;2023-12-29T16:33:34;12.20;92.10
1277;DHT22;631;51.024;13.826;2023-12-29T16:36:07;12.20;92.20